Terminal Aerodrome Forecast
Issued by NWS

Home | Current Version | Previous Version | Text Only | Print | Product List | Glossary On
Versions: 1 2 3 4 5 6 7 8 9 10 11 12 13 14 15 16 17
000
FTUS44 KLIX 270520
TAFHDC
TAF
KHDC 270520Z 2706/2806 21010KT P6SM BKN016
     FM270700 26008KT P6SM VCSH BKN015
     FM270900 32007KT P6SM BKN035
     FM271100 32005KT P6SM BKN015
     FM271400 32004KT P6SM SCT025
     FM280100 14004KT P6SM SKC=

USA.gov is the U.S. government's official web portal to all federal, state and local government web resources and services.